sensor_id;sensor_type;location;lat;lon;timestamp;temperature;humidity
210;DHT22;90;48.810;9.120;2023-04-15T00:00:36;7.50;74.20
210;DHT22;90;48.810;9.120;2023-04-15T00:03:03;7.40;74.50
210;DHT22;90;48.810;9.120;2023-04-15T00:05:31;7.40;74.50
210;DHT22;90;48.810;9.120;2023-04-15T00:07:59;7.30;74.40
210;DHT22;90;48.810;9.120;2023-04-15T00:10:26;7.40;74.70
210;DHT22;90;48.810;9.120;2023-04-15T00:12:53;7.30;74.70
210;DHT22;90;48.810;9.120;2023-04-15T00:15:20;7.30;75.00
210;DHT22;90;48.810;9.120;2023-04-15T00:17:50;7.20;75.20
210;DHT22;90;48.810;9.120;2023-04-15T00:20:18;7.20;75.40
210;DHT22;90;48.810;9.120;2023-04-15T00:22:45;7.20;75.50
210;DHT22;90;48.810;9.120;2023-04-15T00:25:14;7.20;75.60
210;DHT22;90;48.810;9.120;2023-04-15T00:27:41;7.20;75.70
210;DHT22;90;48.810;9.120;2023-04-15T00:30:08;7.10;75.80
210;DHT22;90;48.810;9.120;2023-04-15T00:32:36;7.00;75.90
210;DHT22;90;48.810;9.120;2023-04-15T00:35:05;7.00;76.20
210;DHT22;90;48.810;9.120;2023-04-15T00:37:31;7.00;76.30
210;DHT22;90;48.810;9.120;2023-04-15T00:39:59;7.00;76.50
210;DHT22;90;48.810;9.120;2023-04-15T00:42:27;7.00;76.60
210;DHT22;90;48.810;9.120;2023-04-15T00:44:54;7.00;76.70
210;DHT22;90;48.810;9.120;2023-04-15T00:47:21;7.00;76.50
210;DHT22;90;48.810;9.120;2023-04-15T00:49:48;7.00;76.40
210;DHT22;90;48.810;9.120;2023-04-15T00:52:16;7.00;76.20
210;DHT22;90;48.810;9.120;2023-04-15T00:54:43;7.00;76.30
210;DHT22;90;48.810;9.120;2023-04-15T00:57:10;7.00;76.10
210;DHT22;90;48.810;9.120;2023-04-15T01:02:05;7.00;76.50
210;DHT22;90;48.810;9.120;2023-04-15T01:04:32;7.00;76.10
210;DHT22;90;48.810;9.120;2023-04-15T01:06:59;6.90;76.20
210;DHT22;90;48.810;9.120;2023-04-15T01:09:28;6.80;76.80
210;DHT22;90;48.810;9.120;2023-04-15T01:11:55;6.70;77.00
210;DHT22;90;48.810;9.120;2023-04-15T01:14:22;6.70;76.90
210;DHT22;90;48.810;9.120;2023-04-15T01:16:49;6.80;76.80
210;DHT22;90;48.810;9.120;2023-04-15T01:19:16;6.70;76.60
210;DHT22;90;48.810;9.120;2023-04-15T01:21:44;6.80;76.60
210;DHT22;90;48.810;9.120;2023-04-15T01:24:12;6.90;76.10
210;DHT22;90;48.810;9.120;2023-04-15T01:26:42;6.90;76.10
210;DHT22;90;48.810;9.120;2023-04-15T01:29:09;6.90;75.80
210;DHT22;90;48.810;9.120;2023-04-15T01:31:36;7.00;75.70
210;DHT22;90;48.810;9.120;2023-04-15T01:34:03;7.00;75.70
210;DHT22;90;48.810;9.120;2023-04-15T01:36:30;6.90;76.00
210;DHT22;90;48.810;9.120;2023-04-15T01:38:57;6.90;76.00
210;DHT22;90;48.810;9.120;2023-04-15T01:41:25;6.80;76.10
210;DHT22;90;48.810;9.120;2023-04-15T01:43:53;6.60;76.50
210;DHT22;90;48.810;9.120;2023-04-15T01:46:21;6.60;76.60
210;DHT22;90;48.810;9.120;2023-04-15T01:48:48;6.60;76.60
210;DHT22;90;48.810;9.120;2023-04-15T01:51:15;6.50;76.90
210;DHT22;90;48.810;9.120;2023-04-15T01:53:42;6.40;77.50
210;DHT22;90;48.810;9.120;2023-04-15T01:56:08;6.40;77.50
210;DHT22;90;48.810;9.120;2023-04-15T01:58:35;6.40;77.60
210;DHT22;90;48.810;9.120;2023-04-15T02:01:03;6.40;77.50
210;DHT22;90;48.810;9.120;2023-04-15T02:03:31;6.40;77.60
210;DHT22;90;48.810;9.120;2023-04-15T02:05:58;6.40;77.60
210;DHT22;90;48.810;9.120;2023-04-15T02:08:25;6.40;77.70
210;DHT22;90;48.810;9.120;2023-04-15T02:10:51;6.30;77.60
210;DHT22;90;48.810;9.120;2023-04-15T02:13:18;6.30;77.90
210;DHT22;90;48.810;9.120;2023-04-15T02:15:48;6.20;77.80
210;DHT22;90;48.810;9.120;2023-04-15T02:18:17;6.20;78.10
210;DHT22;90;48.810;9.120;2023-04-15T02:20:44;6.10;78.40
210;DHT22;90;48.810;9.120;2023-04-15T02:23:11;6.10;78.50
210;DHT22;90;48.810;9.120;2023-04-15T02:25:39;6.20;78.50
210;DHT22;90;48.810;9.120;2023-04-15T02:28:06;6.20;78.10
210;DHT22;90;48.810;9.120;2023-04-15T02:30:33;6.20;78.10
210;DHT22;90;48.810;9.120;2023-04-15T02:33:00;6.20;78.10
210;DHT22;90;48.810;9.120;2023-04-15T02:35:28;6.10;78.20
210;DHT22;90;48.810;9.120;2023-04-15T02:37:55;6.10;78.20
210;DHT22;90;48.810;9.120;2023-04-15T02:40:21;6.00;78.40
210;DHT22;90;48.810;9.120;2023-04-15T02:42:48;6.00;78.20
210;DHT22;90;48.810;9.120;2023-04-15T02:45:15;6.00;78.30
210;DHT22;90;48.810;9.120;2023-04-15T02:47:44;6.00;78.50
210;DHT22;90;48.810;9.120;2023-04-15T02:50:12;6.00;78.40
210;DHT22;90;48.810;9.120;2023-04-15T02:52:41;5.90;78.50
210;DHT22;90;48.810;9.120;2023-04-15T02:55:09;5.90;78.50
210;DHT22;90;48.810;9.120;2023-04-15T02:57:36;5.80;78.60
210;DHT22;90;48.810;9.120;2023-04-15T03:00:04;5.80;78.80
210;DHT22;90;48.810;9.120;2023-04-15T03:02:34;5.80;78.70
210;DHT22;90;48.810;9.120;2023-04-15T03:05:00;5.80;78.80
210;DHT22;90;48.810;9.120;2023-04-15T03:07:27;5.80;78.90
210;DHT22;90;48.810;9.120;2023-04-15T03:09:55;5.80;78.80
210;DHT22;90;48.810;9.120;2023-04-15T03:12:22;5.80;78.80
210;DHT22;90;48.810;9.120;2023-04-15T03:14:49;5.70;79.00
210;DHT22;90;48.810;9.120;2023-04-15T03:17:16;5.70;79.20
210;DHT22;90;48.810;9.120;2023-04-15T03:19:43;5.70;79.20
210;DHT22;90;48.810;9.120;2023-04-15T03:22:10;5.70;79.10
210;DHT22;90;48.810;9.120;2023-04-15T03:24:36;5.70;78.90
210;DHT22;90;48.810;9.120;2023-04-15T03:27:05;5.70;79.00
210;DHT22;90;48.810;9.120;2023-04-15T03:29:32;5.70;79.60
210;DHT22;90;48.810;9.120;2023-04-15T03:31:59;5.70;79.40
210;DHT22;90;48.810;9.120;2023-04-15T03:34:26;5.70;79.30
210;DHT22;90;48.810;9.120;2023-04-15T03:36:52;5.70;79.30
210;DHT22;90;48.810;9.120;2023-04-15T03:39:19;5.70;79.60
210;DHT22;90;48.810;9.120;2023-04-15T03:44:15;6.00;79.30
210;DHT22;90;48.810;9.120;2023-04-15T03:46:41;6.00;78.80
210;DHT22;90;48.810;9.120;2023-04-15T03:49:08;5.90;78.80
210;DHT22;90;48.810;9.120;2023-04-15T03:51:35;6.00;78.90
210;DHT22;90;48.810;9.120;2023-04-15T03:54:02;5.90;78.80
210;DHT22;90;48.810;9.120;2023-04-15T03:56:29;5.80;78.70
210;DHT22;90;48.810;9.120;2023-04-15T03:58:56;5.70;79.00
210;DHT22;90;48.810;9.120;2023-04-15T04:01:24;5.70;79.20
210;DHT22;90;48.810;9.120;2023-04-15T04:03:51;5.60;79.40
210;DHT22;90;48.810;9.120;2023-04-15T04:06:17;5.60;79.50
210;DHT22;90;48.810;9.120;2023-04-15T04:08:44;5.60;79.60
210;DHT22;90;48.810;9.120;2023-04-15T04:11:11;5.60;79.50
210;DHT22;90;48.810;9.120;2023-04-15T04:13:38;5.60;79.60
210;DHT22;90;48.810;9.120;2023-04-15T04:16:05;5.60;79.30
210;DHT22;90;48.810;9.120;2023-04-15T04:18:33;5.60;79.60
210;DHT22;90;48.810;9.120;2023-04-15T04:21:00;5.60;79.50
210;DHT22;90;48.810;9.120;2023-04-15T04:23:27;5.60;79.30
210;DHT22;90;48.810;9.120;2023-04-15T04:25:54;5.50;79.30
210;DHT22;90;48.810;9.120;2023-04-15T04:28:21;5.50;79.40
210;DHT22;90;48.810;9.120;2023-04-15T04:30:49;5.50;79.30
210;DHT22;90;48.810;9.120;2023-04-15T04:33:16;5.40;79.60
210;DHT22;90;48.810;9.120;2023-04-15T04:35:44;5.40;79.70
210;DHT22;90;48.810;9.120;2023-04-15T04:38:11;5.40;80.10
210;DHT22;90;48.810;9.120;2023-04-15T04:40:38;5.40;79.70
210;DHT22;90;48.810;9.120;2023-04-15T04:43:04;5.40;79.70
210;DHT22;90;48.810;9.120;2023-04-15T04:45:31;5.30;79.90
210;DHT22;90;48.810;9.120;2023-04-15T04:47:58;5.30;80.00
210;DHT22;90;48.810;9.120;2023-04-15T04:50:25;5.30;79.80
210;DHT22;90;48.810;9.120;2023-04-15T04:52:53;5.30;79.70
210;DHT22;90;48.810;9.120;2023-04-15T04:55:20;5.30;79.80
210;DHT22;90;48.810;9.120;2023-04-15T04:57:46;5.20;80.00
210;DHT22;90;48.810;9.120;2023-04-15T05:00:13;5.20;80.20
210;DHT22;90;48.810;9.120;2023-04-15T05:02:40;5.20;80.40
210;DHT22;90;48.810;9.120;2023-04-15T05:05:08;5.20;80.50
210;DHT22;90;48.810;9.120;2023-04-15T05:07:35;5.20;80.20
210;DHT22;90;48.810;9.120;2023-04-15T05:10:04;5.40;79.90
210;DHT22;90;48.810;9.120;2023-04-15T05:12:31;5.40;79.60
210;DHT22;90;48.810;9.120;2023-04-15T05:14:57;5.30;79.60
210;DHT22;90;48.810;9.120;2023-04-15T05:17:24;5.40;79.50
210;DHT22;90;48.810;9.120;2023-04-15T05:19:51;5.30;79.50
210;DHT22;90;48.810;9.120;2023-04-15T05:22:18;5.30;79.60
210;DHT22;90;48.810;9.120;2023-04-15T05:24:45;5.30;79.80
210;DHT22;90;48.810;9.120;2023-04-15T05:27:13;5.40;79.70
210;DHT22;90;48.810;9.120;2023-04-15T05:29:40;5.40;79.50
210;DHT22;90;48.810;9.120;2023-04-15T05:32:07;5.40;79.70
210;DHT22;90;48.810;9.120;2023-04-15T05:34:33;5.50;79.70
210;DHT22;90;48.810;9.120;2023-04-15T05:37:00;5.60;79.60
210;DHT22;90;48.810;9.120;2023-04-15T05:39:27;5.60;79.30
210;DHT22;90;48.810;9.120;2023-04-15T05:41:55;5.70;79.20
210;DHT22;90;48.810;9.120;2023-04-15T05:44:23;5.70;79.30
210;DHT22;90;48.810;9.120;2023-04-15T05:46:50;5.80;79.40
210;DHT22;90;48.810;9.120;2023-04-15T05:49:17;5.80;79.40
210;DHT22;90;48.810;9.120;2023-04-15T05:51:43;6.00;79.20
210;DHT22;90;48.810;9.120;2023-04-15T05:54:10;6.00;79.10
210;DHT22;90;48.810;9.120;2023-04-15T05:56:37;6.00;79.30
210;DHT22;90;48.810;9.120;2023-04-15T05:59:03;6.10;79.70
210;DHT22;90;48.810;9.120;2023-04-15T06:01:32;6.10;79.60
210;DHT22;90;48.810;9.120;2023-04-15T06:03:59;6.20;79.00
210;DHT22;90;48.810;9.120;2023-04-15T06:06:26;6.30;79.00
210;DHT22;90;48.810;9.120;2023-04-15T06:08:53;6.30;79.00
210;DHT22;90;48.810;9.120;2023-04-15T06:11:20;6.40;78.90
210;DHT22;90;48.810;9.120;2023-04-15T06:13:47;6.60;78.40
210;DHT22;90;48.810;9.120;2023-04-15T06:16:14;6.70;78.40
210;DHT22;90;48.810;9.120;2023-04-15T06:18:42;6.80;77.70
210;DHT22;90;48.810;9.120;2023-04-15T06:21:09;6.90;77.40
210;DHT22;90;48.810;9.120;2023-04-15T06:23:36;7.00;77.10
210;DHT22;90;48.810;9.120;2023-04-15T06:26:05;7.00;77.00
210;DHT22;90;48.810;9.120;2023-04-15T06:28:32;7.10;77.00
210;DHT22;90;48.810;9.120;2023-04-15T06:30:59;7.10;77.10
210;DHT22;90;48.810;9.120;2023-04-15T06:33:26;7.20;76.80
210;DHT22;90;48.810;9.120;2023-04-15T06:35:54;7.30;76.60
210;DHT22;90;48.810;9.120;2023-04-15T06:38:21;7.40;76.80
210;DHT22;90;48.810;9.120;2023-04-15T06:40:48;7.50;76.20
210;DHT22;90;48.810;9.120;2023-04-15T06:43:14;8.20;89.00
210;DHT22;90;48.810;9.120;2023-04-15T06:45:44;9.20;81.40
210;DHT22;90;48.810;9.120;2023-04-15T06:48:11;9.30;72.30
210;DHT22;90;48.810;9.120;2023-04-15T06:50:38;9.50;74.70
210;DHT22;90;48.810;9.120;2023-04-15T06:53:07;9.30;72.10
210;DHT22;90;48.810;9.120;2023-04-15T06:55:34;9.30;72.10
210;DHT22;90;48.810;9.120;2023-04-15T06:58:03;9.30;71.80
210;DHT22;90;48.810;9.120;2023-04-15T07:00:29;9.20;71.80
210;DHT22;90;48.810;9.120;2023-04-15T07:02:58;9.10;72.10
210;DHT22;90;48.810;9.120;2023-04-15T07:05:28;9.10;72.40
210;DHT22;90;48.810;9.120;2023-04-15T07:07:54;9.10;72.70
210;DHT22;90;48.810;9.120;2023-04-15T07:10:23;9.20;72.50
210;DHT22;90;48.810;9.120;2023-04-15T07:12:49;9.40;72.50
210;DHT22;90;48.810;9.120;2023-04-15T07:15:17;9.50;72.20
210;DHT22;90;48.810;9.120;2023-04-15T07:17:43;9.50;72.30
210;DHT22;90;48.810;9.120;2023-04-15T07:20:11;9.60;71.70
210;DHT22;90;48.810;9.120;2023-04-15T07:22:39;9.70;70.70
210;DHT22;90;48.810;9.120;2023-04-15T07:25:07;9.80;69.60
210;DHT22;90;48.810;9.120;2023-04-15T07:27:35;9.90;69.20
210;DHT22;90;48.810;9.120;2023-04-15T07:30:02;10.00;67.40
210;DHT22;90;48.810;9.120;2023-04-15T07:32:29;10.00;66.00
210;DHT22;90;48.810;9.120;2023-04-15T07:34:56;9.90;66.30
210;DHT22;90;48.810;9.120;2023-04-15T07:37:23;9.90;65.70
210;DHT22;90;48.810;9.120;2023-04-15T07:39:50;9.90;65.90
210;DHT22;90;48.810;9.120;2023-04-15T07:42:17;9.90;66.40
210;DHT22;90;48.810;9.120;2023-04-15T07:44:45;9.90;66.50
210;DHT22;90;48.810;9.120;2023-04-15T07:47:12;10.00;66.70
210;DHT22;90;48.810;9.120;2023-04-15T07:49:40;10.00;66.60
210;DHT22;90;48.810;9.120;2023-04-15T07:52:08;10.00;66.90
210;DHT22;90;48.810;9.120;2023-04-15T07:54:35;10.10;67.20
210;DHT22;90;48.810;9.120;2023-04-15T07:57:02;10.10;67.40
210;DHT22;90;48.810;9.120;2023-04-15T07:59:29;10.20;67.20
210;DHT22;90;48.810;9.120;2023-04-15T08:01:59;10.20;65.80
210;DHT22;90;48.810;9.120;2023-04-15T08:04:26;10.30;64.80
210;DHT22;90;48.810;9.120;2023-04-15T08:06:53;10.30;63.10
210;DHT22;90;48.810;9.120;2023-04-15T08:09:19;10.30;62.90
210;DHT22;90;48.810;9.120;2023-04-15T08:11:48;10.30;63.40
210;DHT22;90;48.810;9.120;2023-04-15T08:14:15;10.30;63.90
210;DHT22;90;48.810;9.120;2023-04-15T08:16:42;10.50;63.80
210;DHT22;90;48.810;9.120;2023-04-15T08:19:10;10.60;63.90
210;DHT22;90;48.810;9.120;2023-04-15T08:21:37;10.80;63.30
210;DHT22;90;48.810;9.120;2023-04-15T08:24:04;10.90;62.90
210;DHT22;90;48.810;9.120;2023-04-15T08:26:31;11.10;62.30
210;DHT22;90;48.810;9.120;2023-04-15T08:28:58;11.20;61.20
210;DHT22;90;48.810;9.120;2023-04-15T08:31:26;11.40;61.50
210;DHT22;90;48.810;9.120;2023-04-15T08:33:55;11.50;60.00
210;DHT22;90;48.810;9.120;2023-04-15T08:36:24;11.40;59.40
210;DHT22;90;48.810;9.120;2023-04-15T08:38:51;11.40;59.70
210;DHT22;90;48.810;9.120;2023-04-15T08:41:21;11.50;60.10
210;DHT22;90;48.810;9.120;2023-04-15T08:43:52;11.50;60.10
210;DHT22;90;48.810;9.120;2023-04-15T08:46:21;11.60;60.80
210;DHT22;90;48.810;9.120;2023-04-15T08:48:49;11.50;61.40
210;DHT22;90;48.810;9.120;2023-04-15T08:51:16;11.70;60.70
210;DHT22;90;48.810;9.120;2023-04-15T08:53:44;11.80;60.20
210;DHT22;90;48.810;9.120;2023-04-15T08:56:13;11.90;60.30
210;DHT22;90;48.810;9.120;2023-04-15T08:58:41;12.00;61.70
210;DHT22;90;48.810;9.120;2023-04-15T09:01:10;12.10;61.40
210;DHT22;90;48.810;9.120;2023-04-15T09:03:37;12.20;60.40
210;DHT22;90;48.810;9.120;2023-04-15T09:06:05;12.30;60.20
210;DHT22;90;48.810;9.120;2023-04-15T09:08:32;12.40;60.20
210;DHT22;90;48.810;9.120;2023-04-15T09:11:03;12.50;59.70
210;DHT22;90;48.810;9.120;2023-04-15T09:13:30;12.50;59.40
210;DHT22;90;48.810;9.120;2023-04-15T09:15:57;12.60;59.40
210;DHT22;90;48.810;9.120;2023-04-15T09:18:28;12.70;58.60
210;DHT22;90;48.810;9.120;2023-04-15T09:20:55;12.70;58.60
210;DHT22;90;48.810;9.120;2023-04-15T09:23:22;13.00;56.40
210;DHT22;90;48.810;9.120;2023-04-15T09:25:50;13.00;54.80
210;DHT22;90;48.810;9.120;2023-04-15T09:28:24;13.10;56.00
210;DHT22;90;48.810;9.120;2023-04-15T09:30:54;13.10;56.00
210;DHT22;90;48.810;9.120;2023-04-15T09:33:22;13.20;56.00
210;DHT22;90;48.810;9.120;2023-04-15T09:36:00;13.20;55.70
210;DHT22;90;48.810;9.120;2023-04-15T09:38:28;13.30;55.80
210;DHT22;90;48.810;9.120;2023-04-15T09:40:56;13.20;54.40
210;DHT22;90;48.810;9.120;2023-04-15T09:43:37;13.20;54.40
210;DHT22;90;48.810;9.120;2023-04-15T09:46:04;13.30;53.50
210;DHT22;90;48.810;9.120;2023-04-15T09:48:31;13.20;54.70
210;DHT22;90;48.810;9.120;2023-04-15T09:50:58;13.20;54.80
210;DHT22;90;48.810;9.120;2023-04-15T09:53:26;13.20;55.50
210;DHT22;90;48.810;9.120;2023-04-15T09:55:54;13.10;56.20
210;DHT22;90;48.810;9.120;2023-04-15T09:58:22;13.20;57.00
210;DHT22;90;48.810;9.120;2023-04-15T10:00:52;13.20;57.30
210;DHT22;90;48.810;9.120;2023-04-15T10:03:21;13.30;56.60
210;DHT22;90;48.810;9.120;2023-04-15T10:05:49;13.20;58.10
210;DHT22;90;48.810;9.120;2023-04-15T10:08:18;13.20;57.20
210;DHT22;90;48.810;9.120;2023-04-15T10:10:46;13.10;57.20
210;DHT22;90;48.810;9.120;2023-04-15T10:13:15;13.10;57.90
210;DHT22;90;48.810;9.120;2023-04-15T10:15:44;13.10;57.50
210;DHT22;90;48.810;9.120;2023-04-15T10:18:15;13.10;56.60
210;DHT22;90;48.810;9.120;2023-04-15T10:20:43;13.20;55.90
210;DHT22;90;48.810;9.120;2023-04-15T10:23:11;13.20;54.00
210;DHT22;90;48.810;9.120;2023-04-15T10:25:38;13.10;55.10
210;DHT22;90;48.810;9.120;2023-04-15T10:28:06;13.10;55.20
210;DHT22;90;48.810;9.120;2023-04-15T10:30:33;13.10;56.00
210;DHT22;90;48.810;9.120;2023-04-15T10:33:00;13.20;56.30
210;DHT22;90;48.810;9.120;2023-04-15T10:35:31;13.30;56.80
210;DHT22;90;48.810;9.120;2023-04-15T10:37:59;13.50;56.00
210;DHT22;90;48.810;9.120;2023-04-15T10:40:28;13.70;56.20
210;DHT22;90;48.810;9.120;2023-04-15T10:42:57;13.70;56.30
210;DHT22;90;48.810;9.120;2023-04-15T10:45:25;13.80;55.10
210;DHT22;90;48.810;9.120;2023-04-15T10:47:54;13.80;54.60
210;DHT22;90;48.810;9.120;2023-04-15T10:50:22;13.80;54.70
210;DHT22;90;48.810;9.120;2023-04-15T10:52:52;13.80;53.50
210;DHT22;90;48.810;9.120;2023-04-15T10:55:20;13.70;53.40
210;DHT22;90;48.810;9.120;2023-04-15T10:57:51;13.50;54.70
210;DHT22;90;48.810;9.120;2023-04-15T11:00:23;13.30;55.90
210;DHT22;90;48.810;9.120;2023-04-15T11:02:53;13.20;54.40
210;DHT22;90;48.810;9.120;2023-04-15T11:05:21;13.20;54.20
210;DHT22;90;48.810;9.120;2023-04-15T11:07:52;13.20;54.00
210;DHT22;90;48.810;9.120;2023-04-15T11:10:52;13.30;54.20
210;DHT22;90;48.810;9.120;2023-04-15T11:13:28;13.50;53.30
210;DHT22;90;48.810;9.120;2023-04-15T11:15:59;13.60;52.80
210;DHT22;90;48.810;9.120;2023-04-15T11:18:28;13.80;53.60
210;DHT22;90;48.810;9.120;2023-04-15T11:21:00;14.10;52.40
210;DHT22;90;48.810;9.120;2023-04-15T11:23:31;14.30;52.40
210;DHT22;90;48.810;9.120;2023-04-15T11:25:59;14.40;50.90
210;DHT22;90;48.810;9.120;2023-04-15T11:28:37;14.30;51.40
210;DHT22;90;48.810;9.120;2023-04-15T11:31:07;14.30;51.70
210;DHT22;90;48.810;9.120;2023-04-15T11:33:35;14.30;51.80
210;DHT22;90;48.810;9.120;2023-04-15T11:36:02;14.30;50.70
210;DHT22;90;48.810;9.120;2023-04-15T11:38:33;14.10;51.80
210;DHT22;90;48.810;9.120;2023-04-15T11:41:02;14.00;53.20
210;DHT22;90;48.810;9.120;2023-04-15T11:43:31;13.80;55.10
210;DHT22;90;48.810;9.120;2023-04-15T11:46:01;13.60;55.00
210;DHT22;90;48.810;9.120;2023-04-15T11:48:29;13.60;55.80
210;DHT22;90;48.810;9.120;2023-04-15T11:50:57;13.50;56.50
210;DHT22;90;48.810;9.120;2023-04-15T11:53:36;13.60;55.70
210;DHT22;90;48.810;9.120;2023-04-15T11:56:04;13.70;55.70
210;DHT22;90;48.810;9.120;2023-04-15T11:58:33;13.80;55.40
210;DHT22;90;48.810;9.120;2023-04-15T12:01:02;13.80;55.10
210;DHT22;90;48.810;9.120;2023-04-15T12:03:29;13.90;53.80
210;DHT22;90;48.810;9.120;2023-04-15T12:06:14;14.00;53.10
210;DHT22;90;48.810;9.120;2023-04-15T12:08:56;14.10;51.80
210;DHT22;90;48.810;9.120;2023-04-15T12:11:32;14.10;51.90
210;DHT22;90;48.810;9.120;2023-04-15T12:14:03;14.10;51.90
210;DHT22;90;48.810;9.120;2023-04-15T12:16:31;14.20;52.50
210;DHT22;90;48.810;9.120;2023-04-15T12:18:59;14.20;52.10
210;DHT22;90;48.810;9.120;2023-04-15T12:21:27;14.10;50.50
210;DHT22;90;48.810;9.120;2023-04-15T12:24:01;14.20;50.20
210;DHT22;90;48.810;9.120;2023-04-15T12:26:30;14.30;52.70
210;DHT22;90;48.810;9.120;2023-04-15T12:29:00;14.10;55.60
210;DHT22;90;48.810;9.120;2023-04-15T12:31:27;13.80;56.30
210;DHT22;90;48.810;9.120;2023-04-15T12:33:54;13.30;59.10
210;DHT22;90;48.810;9.120;2023-04-15T12:36:21;12.90;61.80
210;DHT22;90;48.810;9.120;2023-04-15T12:38:48;12.50;62.60
210;DHT22;90;48.810;9.120;2023-04-15T12:41:17;12.20;64.40
210;DHT22;90;48.810;9.120;2023-04-15T12:43:44;12.00;64.20
210;DHT22;90;48.810;9.120;2023-04-15T12:46:11;11.80;64.90
210;DHT22;90;48.810;9.120;2023-04-15T12:48:39;11.80;65.80
210;DHT22;90;48.810;9.120;2023-04-15T12:51:06;11.70;67.40
210;DHT22;90;48.810;9.120;2023-04-15T12:53:32;11.80;67.20
210;DHT22;90;48.810;9.120;2023-04-15T12:55:59;11.80;66.50
210;DHT22;90;48.810;9.120;2023-04-15T12:58:27;11.90;66.20
210;DHT22;90;48.810;9.120;2023-04-15T13:00:54;12.00;64.60
210;DHT22;90;48.810;9.120;2023-04-15T13:03:21;12.10;61.10
210;DHT22;90;48.810;9.120;2023-04-15T13:05:48;12.40;61.00
210;DHT22;90;48.810;9.120;2023-04-15T13:08:15;12.50;59.90
210;DHT22;90;48.810;9.120;2023-04-15T13:10:42;12.40;59.30
210;DHT22;90;48.810;9.120;2023-04-15T13:13:09;12.60;59.70
210;DHT22;90;48.810;9.120;2023-04-15T13:15:38;12.70;59.50
210;DHT22;90;48.810;9.120;2023-04-15T13:18:06;12.80;57.50
210;DHT22;90;48.810;9.120;2023-04-15T13:20:33;12.80;56.80
210;DHT22;90;48.810;9.120;2023-04-15T13:22:59;12.80;57.50
210;DHT22;90;48.810;9.120;2023-04-15T13:25:26;12.80;57.00
210;DHT22;90;48.810;9.120;2023-04-15T13:27:53;12.70;56.80
210;DHT22;90;48.810;9.120;2023-04-15T13:30:23;12.70;56.60
210;DHT22;90;48.810;9.120;2023-04-15T13:32:51;12.60;56.30
210;DHT22;90;48.810;9.120;2023-04-15T13:35:19;12.60;56.20
210;DHT22;90;48.810;9.120;2023-04-15T13:37:48;12.60;55.80
210;DHT22;90;48.810;9.120;2023-04-15T13:40:15;12.60;53.30
210;DHT22;90;48.810;9.120;2023-04-15T13:42:42;12.70;51.50
210;DHT22;90;48.810;9.120;2023-04-15T13:45:10;12.60;53.90
210;DHT22;90;48.810;9.120;2023-04-15T13:47:37;12.80;53.10
210;DHT22;90;48.810;9.120;2023-04-15T13:50:06;12.80;51.50
210;DHT22;90;48.810;9.120;2023-04-15T13:52:33;12.80;50.00
210;DHT22;90;48.810;9.120;2023-04-15T13:55:01;13.00;49.90
210;DHT22;90;48.810;9.120;2023-04-15T13:57:28;13.00;49.50
210;DHT22;90;48.810;9.120;2023-04-15T13:59:55;12.90;49.60
210;DHT22;90;48.810;9.120;2023-04-15T14:02:22;12.90;50.10
210;DHT22;90;48.810;9.120;2023-04-15T14:04:48;12.80;48.90
210;DHT22;90;48.810;9.120;2023-04-15T14:07:16;12.70;50.40
210;DHT22;90;48.810;9.120;2023-04-15T14:09:43;12.60;50.90
210;DHT22;90;48.810;9.120;2023-04-15T14:12:10;12.50;45.40
210;DHT22;90;48.810;9.120;2023-04-15T14:14:37;12.40;45.50
210;DHT22;90;48.810;9.120;2023-04-15T14:17:05;12.30;46.10
210;DHT22;90;48.810;9.120;2023-04-15T14:19:32;12.20;46.60
210;DHT22;90;48.810;9.120;2023-04-15T14:21:59;12.20;47.40
210;DHT22;90;48.810;9.120;2023-04-15T14:24:27;12.20;48.00
210;DHT22;90;48.810;9.120;2023-04-15T14:26:54;12.10;48.70
210;DHT22;90;48.810;9.120;2023-04-15T14:29:21;12.10;49.30
210;DHT22;90;48.810;9.120;2023-04-15T14:31:48;12.00;49.80
210;DHT22;90;48.810;9.120;2023-04-15T14:34:15;12.00;50.30
210;DHT22;90;48.810;9.120;2023-04-15T14:36:44;12.00;50.80
210;DHT22;90;48.810;9.120;2023-04-15T14:39:12;12.00;50.70
210;DHT22;90;48.810;9.120;2023-04-15T14:41:41;11.90;51.10
210;DHT22;90;48.810;9.120;2023-04-15T14:44:08;11.90;51.70
210;DHT22;90;48.810;9.120;2023-04-15T14:46:36;11.80;51.70
210;DHT22;90;48.810;9.120;2023-04-15T14:49:02;11.80;51.60
210;DHT22;90;48.810;9.120;2023-04-15T14:51:30;11.80;52.20
210;DHT22;90;48.810;9.120;2023-04-15T14:53:56;11.80;53.20
210;DHT22;90;48.810;9.120;2023-04-15T14:56:23;11.80;53.10
210;DHT22;90;48.810;9.120;2023-04-15T14:58:51;11.70;53.60
210;DHT22;90;48.810;9.120;2023-04-15T15:01:18;11.60;54.70
210;DHT22;90;48.810;9.120;2023-04-15T15:03:45;11.50;55.40
210;DHT22;90;48.810;9.120;2023-04-15T15:06:12;11.40;57.00
210;DHT22;90;48.810;9.120;2023-04-15T15:08:39;11.30;57.40
210;DHT22;90;48.810;9.120;2023-04-15T15:11:06;11.30;58.40
210;DHT22;90;48.810;9.120;2023-04-15T15:13:34;11.30;59.70
210;DHT22;90;48.810;9.120;2023-04-15T15:16:03;11.20;60.00
210;DHT22;90;48.810;9.120;2023-04-15T15:18:29;11.10;60.00
210;DHT22;90;48.810;9.120;2023-04-15T15:20:57;11.10;60.00
210;DHT22;90;48.810;9.120;2023-04-15T15:23:24;11.00;59.80
210;DHT22;90;48.810;9.120;2023-04-15T15:25:51;11.10;60.00
210;DHT22;90;48.810;9.120;2023-04-15T15:28:20;11.10;60.60
210;DHT22;90;48.810;9.120;2023-04-15T15:30:47;11.10;60.30
210;DHT22;90;48.810;9.120;2023-04-15T15:33:15;11.20;60.20
210;DHT22;90;48.810;9.120;2023-04-15T15:35:43;11.20;60.20
210;DHT22;90;48.810;9.120;2023-04-15T15:38:11;11.30;60.20
210;DHT22;90;48.810;9.120;2023-04-15T15:40:38;11.30;60.10
210;DHT22;90;48.810;9.120;2023-04-15T15:43:05;11.30;60.10
210;DHT22;90;48.810;9.120;2023-04-15T15:45:32;11.30;59.10
210;DHT22;90;48.810;9.120;2023-04-15T15:48:00;11.20;58.50
210;DHT22;90;48.810;9.120;2023-04-15T15:50:28;11.30;58.20
210;DHT22;90;48.810;9.120;2023-04-15T15:52:55;11.30;58.50
210;DHT22;90;48.810;9.120;2023-04-15T15:55:23;11.30;58.40
210;DHT22;90;48.810;9.120;2023-04-15T15:57:51;11.30;57.90
210;DHT22;90;48.810;9.120;2023-04-15T16:00:19;11.30;58.00
210;DHT22;90;48.810;9.120;2023-04-15T16:02:46;11.20;57.90
210;DHT22;90;48.810;9.120;2023-04-15T16:05:13;11.20;57.80
210;DHT22;90;48.810;9.120;2023-04-15T16:07:41;11.30;58.00
210;DHT22;90;48.810;9.120;2023-04-15T16:10:08;11.30;59.50
210;DHT22;90;48.810;9.120;2023-04-15T16:12:36;11.20;61.20
210;DHT22;90;48.810;9.120;2023-04-15T16:15:04;11.20;63.30
210;DHT22;90;48.810;9.120;2023-04-15T16:17:31;11.10;66.30
210;DHT22;90;48.810;9.120;2023-04-15T16:19:58;11.00;68.60
210;DHT22;90;48.810;9.120;2023-04-15T16:22:28;10.90;69.90
210;DHT22;90;48.810;9.120;2023-04-15T16:24:57;10.90;71.00
210;DHT22;90;48.810;9.120;2023-04-15T16:27:24;10.80;72.20
210;DHT22;90;48.810;9.120;2023-04-15T16:29:51;10.80;73.20
210;DHT22;90;48.810;9.120;2023-04-15T16:32:18;10.70;74.20
210;DHT22;90;48.810;9.120;2023-04-15T16:34:45;10.80;74.40
210;DHT22;90;48.810;9.120;2023-04-15T16:37:12;10.70;75.80
210;DHT22;90;48.810;9.120;2023-04-15T16:39:39;10.80;76.10
210;DHT22;90;48.810;9.120;2023-04-15T16:42:08;10.80;76.60
210;DHT22;90;48.810;9.120;2023-04-15T16:44:35;10.90;76.20
210;DHT22;90;48.810;9.120;2023-04-15T16:47:01;10.90;76.40
210;DHT22;90;48.810;9.120;2023-04-15T16:49:28;10.80;76.70
210;DHT22;90;48.810;9.120;2023-04-15T16:51:56;10.90;76.80
210;DHT22;90;48.810;9.120;2023-04-15T16:54:23;10.90;77.60
210;DHT22;90;48.810;9.120;2023-04-15T16:56:49;10.80;77.80
210;DHT22;90;48.810;9.120;2023-04-15T16:59:18;10.80;78.90
210;DHT22;90;48.810;9.120;2023-04-15T17:01:44;10.60;80.00
210;DHT22;90;48.810;9.120;2023-04-15T17:04:11;10.60;80.70
210;DHT22;90;48.810;9.120;2023-04-15T17:06:38;10.50;81.60